Time;durP1;ratioP1;P1;durP2;ratioP2;P2;SDS_P1;SDS_P2;PMS_P1;PMS_P2;Temp;Humidity;BMP_temperature;BMP_pressure;BME280_temperature;BME280_humidity;BME280_pressure;Samples;Min_cycle;Max_cycle;Signal;HPM_P1;HPM_P2
2022/03/11 00:00:37;;;;;;;28.80;11.93;;;;;;;;;;5074996;28;20254;-49
2022/03/11 00:03:08;;;;;;;20.13;10.30;;;;;;;;;;5074994;28;20665;-48
2022/03/11 00:05:35;;;;;;;27.10;10.67;;;;;;;;;;5074988;28;20650;-48
2022/03/11 00:08:03;;;;;;;22.97;10.13;;;;;;;;;;5075419;28;20669;-49
2022/03/11 00:10:30;;;;;;;22.83;9.43;;;;;;;;;;5075221;28;20272;-49
2022/03/11 00:12:58;;;;;;;19.40;9.83;;;;;;;;;;5074901;28;20241;-49
2022/03/11 00:15:25;;;;;;;19.97;9.50;;;;;;;;;;5074905;28;20199;-48
2022/03/11 00:17:52;;;;;;;20.83;9.70;;;;;;;;;;5074594;28;20199;-49
2022/03/11 00:20:21;;;;;;;19.30;8.63;;;;;;;;;;5074753;28;20270;-51
2022/03/11 00:22:50;;;;;;;15.43;8.10;;;;;;;;;;5075387;28;20647;-52
2022/03/11 00:25:18;;;;;;;18.47;8.20;;;;;;;;;;5057238;28;20199;-53
2022/03/11 00:27:46;;;;;;;19.13;8.47;;;;;;;;;;5074846;28;20199;-52
2022/03/11 00:30:13;;;;;;;21.33;8.70;;;;;;;;;;5074525;28;20218;-48
2022/03/11 00:32:40;;;;;;;19.03;9.00;;;;;;;;;;5074348;28;20226;-49
2022/03/11 00:35:09;;;;;;;17.77;8.10;;;;;;;;;;5074956;28;20227;-49
2022/03/11 00:37:40;;;;;;;18.20;7.77;;;;;;;;;;5078370;28;20220;-48
2022/03/11 00:40:08;;;;;;;17.73;7.60;;;;;;;;;;5078583;28;20605;-49
2022/03/11 00:42:35;;;;;;;17.33;8.37;;;;;;;;;;5078574;28;20219;-51
2022/03/11 00:45:03;;;;;;;20.47;9.33;;;;;;;;;;5078602;28;20199;-49
2022/03/11 00:47:30;;;;;;;16.50;8.43;;;;;;;;;;5078594;28;20207;-48
2022/03/11 00:49:57;;;;;;;17.77;7.77;;;;;;;;;;5078532;28;20588;-48
2022/03/11 00:52:24;;;;;;;20.90;8.10;;;;;;;;;;5043676;28;20591;-48
2022/03/11 00:54:51;;;;;;;16.90;8.07;;;;;;;;;;5078302;28;20199;-48
2022/03/11 00:57:18;;;;;;;21.20;8.30;;;;;;;;;;5078270;28;20227;-48
2022/03/11 00:59:46;;;;;;;20.60;8.77;;;;;;;;;;5078112;28;20206;-48
2022/03/11 01:02:13;;;;;;;19.40;8.27;;;;;;;;;;5077726;28;20239;-50
2022/03/11 01:04:41;;;;;;;23.93;10.37;;;;;;;;;;5078033;28;20211;-48
2022/03/11 01:07:08;;;;;;;21.23;9.67;;;;;;;;;;5078180;28;20200;-49
2022/03/11 01:09:35;;;;;;;20.60;9.00;;;;;;;;;;5078260;28;20231;-48
2022/03/11 01:12:02;;;;;;;21.33;9.87;;;;;;;;;;5077931;28;20199;-51
2022/03/11 01:14:29;;;;;;;25.90;11.23;;;;;;;;;;5077788;28;20622;-48
2022/03/11 01:16:56;;;;;;;29.93;12.23;;;;;;;;;;5078465;28;20286;-49
2022/03/11 01:19:23;;;;;;;26.13;10.53;;;;;;;;;;5077694;28;20642;-49
2022/03/11 01:21:51;;;;;;;23.10;9.90;;;;;;;;;;5077906;28;20273;-49
2022/03/11 01:24:18;;;;;;;21.80;9.27;;;;;;;;;;5077838;28;20638;-49
2022/03/11 01:26:45;;;;;;;20.27;9.00;;;;;;;;;;5078506;28;20265;-49
2022/03/11 01:29:14;;;;;;;18.87;8.37;;;;;;;;;;5077470;28;20224;-49
2022/03/11 01:31:41;;;;;;;20.23;8.47;;;;;;;;;;5077491;28;20203;-48
2022/03/11 01:34:09;;;;;;;19.63;8.27;;;;;;;;;;5077558;28;20227;-48
2022/03/11 01:36:36;;;;;;;21.60;8.30;;;;;;;;;;5077560;28;20276;-49
2022/03/11 01:39:03;;;;;;;25.73;9.73;;;;;;;;;;5077278;28;20626;-49
2022/03/11 01:41:30;;;;;;;22.20;9.17;;;;;;;;;;5077707;28;20281;-48
2022/03/11 01:44:08;;;;;;;22.17;9.40;;;;;;;;;;5077297;28;20197;-48
2022/03/11 01:46:36;;;;;;;23.73;9.70;;;;;;;;;;5077197;28;20223;-48
2022/03/11 01:49:07;;;;;;;24.70;9.87;;;;;;;;;;5077392;28;20195;-49
2022/03/11 01:51:42;;;;;;;21.40;9.97;;;;;;;;;;5077127;28;20280;-50
2022/03/11 01:54:10;;;;;;;26.13;10.47;;;;;;;;;;5077466;28;20195;-49
2022/03/11 01:56:38;;;;;;;25.03;10.57;;;;;;;;;;5077057;28;20582;-48
2022/03/11 01:59:07;;;;;;;24.87;10.43;;;;;;;;;;5077412;28;20199;-49
2022/03/11 02:01:35;;;;;;;25.07;9.97;;;;;;;;;;5076961;28;20255;-51
2022/03/11 02:04:02;;;;;;;29.73;11.97;;;;;;;;;;5076977;28;20226;-48
2022/03/11 02:06:29;;;;;;;28.53;11.30;;;;;;;;;;5076837;28;20282;-48
2022/03/11 02:08:59;;;;;;;39.43;12.60;;;;;;;;;;5077071;28;20241;-48
2022/03/11 02:11:26;;;;;;;31.13;11.00;;;;;;;;;;5059535;28;20211;-48
2022/03/11 02:13:56;;;;;;;28.07;11.60;;;;;;;;;;5076671;28;20207;-49
2022/03/11 02:16:26;;;;;;;27.23;11.03;;;;;;;;;;5076699;28;20673;-49
2022/03/11 02:18:54;;;;;;;28.63;11.17;;;;;;;;;;5076823;28;20210;-48
2022/03/11 02:21:22;;;;;;;24.30;9.97;;;;;;;;;;5077360;28;20235;-48
2022/03/11 02:23:52;;;;;;;24.50;9.40;;;;;;;;;;5076943;28;20219;-48
2022/03/11 02:26:21;;;;;;;18.13;8.90;;;;;;;;;;5076649;28;20272;-48
2022/03/11 02:28:50;;;;;;;18.30;8.90;;;;;;;;;;5076532;28;20203;-49
2022/03/11 02:31:18;;;;;;;23.10;9.23;;;;;;;;;;5076607;28;20234;-48
2022/03/11 02:33:46;;;;;;;23.77;9.77;;;;;;;;;;5076610;28;20286;-49
2022/03/11 02:36:13;;;;;;;23.27;9.97;;;;;;;;;;5077041;28;20278;-49
2022/03/11 02:38:40;;;;;;;31.10;9.90;;;;;;;;;;5076373;28;20238;-48
2022/03/11 02:41:07;;;;;;;30.23;10.63;;;;;;;;;;5076405;28;20306;-48
2022/03/11 02:43:34;;;;;;;21.20;9.50;;;;;;;;;;5076301;28;20199;-49
2022/03/11 02:46:02;;;;;;;28.40;10.43;;;;;;;;;;5076043;28;20677;-48
2022/03/11 02:48:30;;;;;;;20.97;9.83;;;;;;;;;;5076048;28;20215;-48
2022/03/11 02:50:57;;;;;;;23.30;9.00;;;;;;;;;;5075952;28;20207;-49
2022/03/11 02:53:24;;;;;;;21.43;9.30;;;;;;;;;;5076226;28;20282;-48
2022/03/11 02:55:51;;;;;;;22.43;9.80;;;;;;;;;;5075972;28;20226;-48
2022/03/11 02:58:19;;;;;;;23.03;9.70;;;;;;;;;;5074948;28;20581;-48
2022/03/11 03:00:46;;;;;;;23.60;9.40;;;;;;;;;;5075708;28;20306;-48
2022/03/11 03:03:14;;;;;;;27.10;10.17;;;;;;;;;;5075859;28;20251;-49
2022/03/11 03:05:41;;;;;;;31.73;9.83;;;;;;;;;;5076028;28;20207;-48
2022/03/11 03:08:08;;;;;;;19.60;9.27;;;;;;;;;;5075815;28;20223;-48
2022/03/11 03:10:35;;;;;;;22.77;9.10;;;;;;;;;;5075853;28;20200;-49
2022/03/11 03:13:03;;;;;;;24.53;9.43;;;;;;;;;;5075747;28;20320;-48
2022/03/11 03:15:32;;;;;;;21.93;10.13;;;;;;;;;;5058479;28;20230;-48
2022/03/11 03:18:00;;;;;;;21.33;8.77;;;;;;;;;;5075715;28;20238;-49
2022/03/11 03:20:27;;;;;;;22.70;9.97;;;;;;;;;;5075599;28;20527;-49
2022/03/11 03:22:54;;;;;;;21.10;10.27;;;;;;;;;;5075520;28;20272;-48
2022/03/11 03:25:21;;;;;;;21.03;9.43;;;;;;;;;;5075373;28;20585;-48
2022/03/11 03:27:48;;;;;;;23.30;9.23;;;;;;;;;;5075225;28;20634;-48
2022/03/11 03:30:15;;;;;;;19.43;9.20;;;;;;;;;;5075452;28;20286;-48
2022/03/11 03:32:43;;;;;;;20.10;9.70;;;;;;;;;;5075713;28;20297;-49
2022/03/11 03:35:11;;;;;;;22.20;9.20;;;;;;;;;;5075296;28;20214;-48
2022/03/11 03:37:39;;;;;;;17.60;8.07;;;;;;;;;;5075384;28;20252;-48
2022/03/11 03:40:07;;;;;;;25.60;9.50;;;;;;;;;;5075021;28;20207;-48
2022/03/11 03:42:35;;;;;;;25.27;9.70;;;;;;;;;;5074894;28;20261;-49
2022/03/11 03:45:03;;;;;;;21.03;8.43;;;;;;;;;;5075054;28;20207;-48
2022/03/11 03:47:30;;;;;;;22.63;9.30;;;;;;;;;;5075300;28;20226;-49
2022/03/11 03:49:57;;;;;;;21.90;8.73;;;;;;;;;;5074986;28;20218;-48
2022/03/11 03:52:27;;;;;;;25.50;9.57;;;;;;;;;;5075097;28;20268;-49
2022/03/11 03:54:56;;;;;;;19.00;9.00;;;;;;;;;;5075182;28;20214;-48
2022/03/11 03:57:25;;;;;;;25.23;9.83;;;;;;;;;;5057785;28;20246;-49
2022/03/11 03:59:52;;;;;;;23.17;9.83;;;;;;;;;;5075064;28;20203;-48
2022/03/11 04:02:19;;;;;;;22.83;9.57;;;;;;;;;;5074747;28;20270;-49
2022/03/11 04:04:47;;;;;;;16.40;7.73;;;;;;;;;;5074868;28;20295;-49
2022/03/11 04:07:14;;;;;;;20.23;8.40;;;;;;;;;;5074989;28;20245;-47
2022/03/11 04:09:45;;;;;;;17.70;8.20;;;;;;;;;;5074759;28;20203;-49
2022/03/11 04:12:14;;;;;;;17.27;8.67;;;;;;;;;;5074930;28;20227;-48
2022/03/11 04:14:42;;;;;;;24.33;8.77;;;;;;;;;;5074706;28;20207;-49
2022/03/11 04:17:09;;;;;;;19.17;8.30;;;;;;;;;;5074629;28;20536;-48
2022/03/11 04:19:36;;;;;;;16.37;7.77;;;;;;;;;;5074474;28;20195;-48
2022/03/11 04:22:04;;;;;;;20.23;9.07;;;;;;;;;;5074310;28;20247;-49
2022/03/11 04:24:31;;;;;;;20.83;9.10;;;;;;;;;;5074494;28;20210;-49
2022/03/11 04:26:58;;;;;;;19.63;8.57;;;;;;;;;;5074259;28;20227;-50
2022/03/11 04:29:26;;;;;;;16.83;8.10;;;;;;;;;;5074685;28;20196;-50
2022/03/11 04:31:55;;;;;;;22.07;9.43;;;;;;;;;;5074093;28;20203;-54
2022/03/11 04:34:22;;;;;;;28.53;9.53;;;;;;;;;;5074468;28;20203;-51
2022/03/11 04:36:49;;;;;;;21.43;8.77;;;;;;;;;;5074372;28;20199;-48
2022/03/11 04:39:16;;;;;;;21.87;8.57;;;;;;;;;;5072484;28;20196;-49
2022/03/11 04:41:44;;;;;;;28.63;9.00;;;;;;;;;;5062847;28;20614;-49
2022/03/11 04:44:11;;;;;;;19.53;9.00;;;;;;;;;;5054429;28;20801;-50
2022/03/11 04:46:38;;;;;;;19.07;9.13;;;;;;;;;;5054417;28;20586;-49
2022/03/11 04:49:06;;;;;;;22.93;9.07;;;;;;;;;;5057019;28;20618;-54
2022/03/11 04:51:33;;;;;;;22.23;9.50;;;;;;;;;;5067421;28;20235;-53
2022/03/11 04:54:02;;;;;;;20.87;8.47;;;;;;;;;;5073786;28;20215;-52
2022/03/11 04:56:30;;;;;;;26.93;12.60;;;;;;;;;;5073973;28;20226;-52
2022/03/11 04:58:58;;;;;;;17.67;8.67;;;;;;;;;;5073949;28;20295;-50
2022/03/11 05:01:28;;;;;;;21.67;9.57;;;;;;;;;;5072189;28;20253;-51
2022/03/11 05:03:55;;;;;;;32.23;10.47;;;;;;;;;;5063427;28;20238;-49
2022/03/11 05:06:23;;;;;;;26.33;10.63;;;;;;;;;;5055652;28;20704;-49
2022/03/11 05:08:50;;;;;;;26.27;11.87;;;;;;;;;;5072585;28;20241;-49
2022/03/11 05:11:18;;;;;;;24.03;11.37;;;;;;;;;;5055704;28;20254;-50
2022/03/11 05:13:45;;;;;;;35.97;15.20;;;;;;;;;;5072279;28;20721;-49
2022/03/11 05:16:12;;;;;;;30.20;13.97;;;;;;;;;;5055662;28;20697;-50
2022/03/11 05:18:42;;;;;;;22.63;10.83;;;;;;;;;;5071989;28;20292;-53
2022/03/11 05:21:09;;;;;;;21.07;10.10;;;;;;;;;;5073543;28;20608;-49
2022/03/11 05:23:36;;;;;;;21.33;9.23;;;;;;;;;;5076415;28;20242;-53
2022/03/11 05:26:03;;;;;;;25.40;12.83;;;;;;;;;;5076913;28;20253;-49
2022/03/11 05:28:30;;;;;;;28.43;12.30;;;;;;;;;;5076779;28;20230;-47
2022/03/11 05:30:58;;;;;;;32.83;11.13;;;;;;;;;;5076861;28;20762;-50
2022/03/11 05:33:25;;;;;;;25.07;11.37;;;;;;;;;;5075972;28;20253;-51
2022/03/11 05:35:53;;;;;;;33.17;11.77;;;;;;;;;;5042302;28;20251;-49
2022/03/11 05:38:20;;;;;;;25.07;9.40;;;;;;;;;;5076411;28;20223;-48
2022/03/11 05:40:47;;;;;;;21.93;9.17;;;;;;;;;;5069952;28;20208;-52
2022/03/11 05:43:15;;;;;;;22.90;9.50;;;;;;;;;;5070572;28;20514;-49
2022/03/11 05:45:42;;;;;;;19.63;8.53;;;;;;;;;;5074698;28;20298;-51
2022/03/11 05:48:09;;;;;;;19.60;8.63;;;;;;;;;;5069467;28;20227;-51
2022/03/11 05:50:38;;;;;;;29.13;11.63;;;;;;;;;;5074225;28;20215;-56
2022/03/11 05:53:06;;;;;;;25.23;13.60;;;;;;;;;;5072878;28;20681;-52
2022/03/11 05:55:34;;;;;;;22.83;12.23;;;;;;;;;;5074581;28;20265;-48
2022/03/11 05:58:01;;;;;;;24.63;12.33;;;;;;;;;;5072004;28;20223;-48
2022/03/11 06:00:28;;;;;;;31.87;13.60;;;;;;;;;;5076294;28;20250;-49
2022/03/11 06:02:55;;;;;;;22.90;11.03;;;;;;;;;;5074074;28;20340;-48
2022/03/11 06:05:22;;;;;;;27.37;10.63;;;;;;;;;;5074379;28;20706;-55
2022/03/11 06:07:49;;;;;;;20.43;8.63;;;;;;;;;;5073677;28;20596;-50
2022/03/11 06:10:17;;;;;;;18.50;8.40;;;;;;;;;;5074712;28;20600;-48
2022/03/11 06:12:44;;;;;;;19.17;8.80;;;;;;;;;;5076061;28;20521;-49
2022/03/11 06:15:11;;;;;;;19.20;8.93;;;;;;;;;;5076758;28;20234;-49
2022/03/11 06:17:38;;;;;;;21.80;9.70;;;;;;;;;;5076572;28;20199;-48
2022/03/11 06:20:09;;;;;;;23.10;10.33;;;;;;;;;;5076730;28;20641;-49
2022/03/11 06:22:36;;;;;;;17.87;8.20;;;;;;;;;;5076548;28;20372;-48
2022/03/11 06:25:04;;;;;;;22.73;10.27;;;;;;;;;;5076688;28;20515;-50
2022/03/11 06:27:31;;;;;;;17.53;9.10;;;;;;;;;;5076439;28;20206;-49
2022/03/11 06:29:59;;;;;;;26.03;10.30;;;;;;;;;;5076619;28;20222;-51
2022/03/11 06:32:26;;;;;;;16.63;7.80;;;;;;;;;;5076329;28;20207;-49
2022/03/11 06:34:54;;;;;;;18.27;7.80;;;;;;;;;;5076567;28;20541;-48
2022/03/11 06:37:21;;;;;;;18.67;8.47;;;;;;;;;;5076222;28;20223;-48
2022/03/11 06:39:48;;;;;;;16.00;7.10;;;;;;;;;;5076177;28;20230;-49
2022/03/11 06:42:16;;;;;;;15.80;7.03;;;;;;;;;;5075952;28;20227;-53
2022/03/11 06:44:43;;;;;;;16.37;6.13;;;;;;;;;;5076338;28;20235;-48
2022/03/11 06:47:10;;;;;;;12.10;5.93;;;;;;;;;;5076382;28;20272;-48
2022/03/11 06:49:43;;;;;;;11.90;5.67;;;;;;;;;;5076470;28;20698;-49
2022/03/11 06:52:10;;;;;;;12.20;5.77;;;;;;;;;;5075953;28;20708;-49
2022/03/11 06:54:37;;;;;;;12.17;5.93;;;;;;;;;;5058963;28;20257;-48
2022/03/11 06:57:05;;;;;;;10.50;4.80;;;;;;;;;;5075757;28;20652;-48
2022/03/11 06:59:37;;;;;;;14.27;6.40;;;;;;;;;;5076046;28;20272;-48
2022/03/11 07:02:05;;;;;;;13.33;5.40;;;;;;;;;;5075435;28;20285;-49
2022/03/11 07:04:32;;;;;;;8.03;4.80;;;;;;;;;;5075680;28;20205;-49
2022/03/11 07:07:00;;;;;;;10.03;5.17;;;;;;;;;;5075883;28;20249;-48
2022/03/11 07:09:27;;;;;;;8.43;4.80;;;;;;;;;;5075882;28;20242;-48
2022/03/11 07:11:57;;;;;;;9.27;4.73;;;;;;;;;;5075845;28;20207;-48
2022/03/11 07:14:24;;;;;;;7.50;4.60;;;;;;;;;;5075485;28;20245;-48
2022/03/11 07:16:56;;;;;;;8.30;4.50;;;;;;;;;;5065186;28;20235;-48
2022/03/11 07:19:23;;;;;;;8.70;4.27;;;;;;;;;;5056187;28;20200;-48
2022/03/11 07:21:50;;;;;;;9.50;3.90;;;;;;;;;;5072119;28;20214;-49
2022/03/11 07:24:17;;;;;;;8.73;3.70;;;;;;;;;;5074476;28;20641;-48
2022/03/11 07:26:45;;;;;;;13.83;4.03;;;;;;;;;;5055827;28;20231;-49
2022/03/11 07:29:12;;;;;;;5.83;3.60;;;;;;;;;;5055474;28;20282;-48
2022/03/11 07:31:39;;;;;;;6.47;3.97;;;;;;;;;;5056163;28;20585;-48
2022/03/11 07:34:06;;;;;;;8.37;3.90;;;;;;;;;;5055178;28;20299;-48
2022/03/11 07:36:34;;;;;;;10.27;4.37;;;;;;;;;;5055577;28;20228;-51
2022/03/11 07:39:06;;;;;;;6.37;4.07;;;;;;;;;;5055061;28;20208;-48
2022/03/11 07:41:34;;;;;;;9.20;3.50;;;;;;;;;;5055069;28;20223;-48
2022/03/11 07:44:03;;;;;;;4.80;3.40;;;;;;;;;;5054419;28;20634;-47
2022/03/11 07:46:50;;;;;;;6.43;3.70;;;;;;;;;;5055037;28;20290;-50
2022/03/11 07:49:18;;;;;;;5.60;3.23;;;;;;;;;;5055174;28;20302;-48
2022/03/11 07:51:46;;;;;;;6.83;3.17;;;;;;;;;;5055182;28;20247;-48
2022/03/11 07:54:13;;;;;;;4.90;3.30;;;;;;;;;;5054811;28;20200;-48
2022/03/11 07:56:41;;;;;;;6.43;3.30;;;;;;;;;;5054711;28;20224;-48
2022/03/11 07:59:08;;;;;;;5.87;2.97;;;;;;;;;;5054896;28;20200;-50
2022/03/11 08:01:35;;;;;;;7.33;3.47;;;;;;;;;;5054967;28;20236;-49
2022/03/11 08:04:06;;;;;;;7.87;3.53;;;;;;;;;;5054777;28;20242;-49
2022/03/11 08:06:33;;;;;;;9.10;3.97;;;;;;;;;;5054664;28;20203;-51
2022/03/11 08:09:00;;;;;;;4.27;3.00;;;;;;;;;;5054337;28;20200;-49
2022/03/11 08:11:28;;;;;;;5.57;3.63;;;;;;;;;;5054484;28;20231;-48
2022/03/11 08:13:55;;;;;;;7.93;3.80;;;;;;;;;;5054699;28;20295;-49
2022/03/11 08:16:22;;;;;;;5.00;3.10;;;;;;;;;;5054808;28;20231;-48
2022/03/11 08:18:49;;;;;;;5.70;3.27;;;;;;;;;;5054755;28;20287;-48
2022/03/11 08:21:17;;;;;;;10.43;3.57;;;;;;;;;;5054583;28;20212;-48
2022/03/11 08:23:44;;;;;;;9.00;4.70;;;;;;;;;;5054670;28;20250;-48
2022/03/11 08:26:12;;;;;;;9.03;4.83;;;;;;;;;;5054876;28;20204;-48
2022/03/11 08:28:44;;;;;;;6.97;3.87;;;;;;;;;;5054440;28;20218;-48
2022/03/11 08:31:32;;;;;;;8.47;5.03;;;;;;;;;;5054565;28;20235;-49
2022/03/11 08:34:00;;;;;;;9.53;5.17;;;;;;;;;;5054404;28;20211;-48
2022/03/11 08:36:27;;;;;;;7.40;3.93;;;;;;;;;;5054314;28;20333;-48
2022/03/11 08:38:54;;;;;;;9.00;3.87;;;;;;;;;;5054513;28;20295;-48
2022/03/11 08:41:25;;;;;;;8.50;3.63;;;;;;;;;;5054476;28;20220;-48
2022/03/11 08:43:52;;;;;;;12.00;4.17;;;;;;;;;;5054930;28;20558;-47
2022/03/11 08:46:19;;;;;;;8.60;4.23;;;;;;;;;;5054388;28;20285;-48
2022/03/11 08:48:46;;;;;;;5.67;2.90;;;;;;;;;;5054507;28;20196;-48
2022/03/11 08:51:14;;;;;;;12.40;4.57;;;;;;;;;;5054360;28;20228;-48
2022/03/11 08:53:41;;;;;;;6.67;3.07;;;;;;;;;;5054735;28;20207;-48
2022/03/11 08:56:08;;;;;;;5.67;3.10;;;;;;;;;;5054655;28;20258;-48
2022/03/11 08:58:37;;;;;;;4.63;3.00;;;;;;;;;;5058013;28;20196;-49
2022/03/11 09:01:04;;;;;;;8.67;3.37;;;;;;;;;;5058175;28;20266;-48
2022/03/11 09:03:31;;;;;;;4.80;2.67;;;;;;;;;;5058370;28;20264;-48
2022/03/11 09:05:59;;;;;;;8.20;3.83;;;;;;;;;;5058366;28;20254;-49
2022/03/11 09:08:26;;;;;;;5.40;2.73;;;;;;;;;;5057859;28;20219;-50
2022/03/11 09:10:53;;;;;;;5.07;2.83;;;;;;;;;;5058035;28;20246;-50
2022/03/11 09:13:21;;;;;;;5.23;2.90;;;;;;;;;;5057902;28;20239;-48
2022/03/11 09:15:48;;;;;;;8.30;3.70;;;;;;;;;;5058075;28;20231;-53
2022/03/11 09:18:15;;;;;;;6.60;3.23;;;;;;;;;;5058055;28;20200;-53
2022/03/11 09:20:42;;;;;;;4.93;2.83;;;;;;;;;;5057794;28;20224;-49
2022/03/11 09:23:11;;;;;;;6.63;3.03;;;;;;;;;;5057669;28;20220;-49
2022/03/11 09:25:38;;;;;;;5.43;2.93;;;;;;;;;;5040304;28;20234;-50
2022/03/11 09:28:06;;;;;;;4.90;2.93;;;;;;;;;;5058219;28;20215;-49
2022/03/11 09:30:33;;;;;;;5.03;2.47;;;;;;;;;;5057479;28;20329;-49
2022/03/11 09:33:01;;;;;;;3.70;2.20;;;;;;;;;;5058169;28;20231;-50
2022/03/11 09:35:29;;;;;;;5.97;2.73;;;;;;;;;;5040142;28;20188;-48
2022/03/11 09:37:56;;;;;;;4.90;3.10;;;;;;;;;;5057767;28;20259;-48
2022/03/11 09:40:24;;;;;;;5.53;2.83;;;;;;;;;;5057344;28;20218;-48
2022/03/11 09:42:52;;;;;;;3.83;2.50;;;;;;;;;;5057275;28;20266;-49
2022/03/11 09:45:21;;;;;;;5.20;2.80;;;;;;;;;;5057802;28;20204;-48
2022/03/11 09:47:48;;;;;;;4.63;2.50;;;;;;;;;;5057864;28;20231;-48
2022/03/11 09:50:15;;;;;;;6.90;3.03;;;;;;;;;;5057057;28;20269;-49
2022/03/11 09:52:42;;;;;;;3.23;2.27;;;;;;;;;;5057338;28;20212;-48
2022/03/11 09:55:10;;;;;;;5.33;2.90;;;;;;;;;;5057198;28;20238;-48
2022/03/11 09:57:37;;;;;;;5.33;2.67;;;;;;;;;;5057431;28;20200;-50
2022/03/11 10:00:06;;;;;;;3.57;2.17;;;;;;;;;;5056944;28;20231;-48
2022/03/11 10:02:44;;;;;;;4.73;3.13;;;;;;;;;;5056903;28;20246;-48
2022/03/11 10:05:13;;;;;;;5.17;3.00;;;;;;;;;;5056782;28;20216;-48
2022/03/11 10:07:58;;;;;;;3.63;2.40;;;;;;;;;;5056542;28;20261;-48
2022/03/11 10:10:26;;;;;;;3.43;2.50;;;;;;;;;;5057427;28;20526;-48
2022/03/11 10:13:10;;;;;;;3.50;2.43;;;;;;;;;;5056654;28;20208;-50
2022/03/11 10:15:39;;;;;;;3.60;2.10;;;;;;;;;;5057123;28;20654;-49
2022/03/11 10:18:12;;;;;;;13.83;6.87;;;;;;;;;;5056624;28;20206;-48
2022/03/11 10:20:41;;;;;;;156.63;70.47;;;;;;;;;;5056868;28;20635;-50
2022/03/11 10:23:10;;;;;;;4.33;2.40;;;;;;;;;;5056484;28;20216;-48
2022/03/11 10:25:37;;;;;;;2.90;2.00;;;;;;;;;;5039176;28;20533;-49
2022/03/11 10:28:08;;;;;;;3.83;2.20;;;;;;;;;;5056391;28;20231;-48
2022/03/11 10:30:37;;;;;;;3.00;2.07;;;;;;;;;;5056398;28;20320;-49
2022/03/11 10:33:07;;;;;;;4.77;2.40;;;;;;;;;;5056310;28;20228;-50
2022/03/11 10:35:36;;;;;;;5.43;2.20;;;;;;;;;;5056475;28;20212;-50
2022/03/11 10:38:07;;;;;;;3.00;1.90;;;;;;;;;;5056612;28;20597;-48
2022/03/11 10:40:39;;;;;;;4.60;2.00;;;;;;;;;;5056441;28;20193;-48
2022/03/11 10:43:16;;;;;;;2.97;2.00;;;;;;;;;;5056514;28;20617;-48
2022/03/11 10:46:01;;;;;;;2.93;1.97;;;;;;;;;;5056786;28;20267;-49
2022/03/11 10:48:43;;;;;;;5.00;2.60;;;;;;;;;;5056108;28;20207;-49
2022/03/11 10:51:20;;;;;;;93.30;27.37;;;;;;;;;;5056066;28;20238;-49
2022/03/11 10:53:49;;;;;;;4.10;2.23;;;;;;;;;;5055980;28;20227;-48
2022/03/11 10:56:36;;;;;;;9.40;4.33;;;;;;;;;;5055954;28;20211;-48
2022/03/11 10:59:11;;;;;;;3.33;1.97;;;;;;;;;;5056163;28;20566;-49
2022/03/11 11:01:43;;;;;;;8.00;4.67;;;;;;;;;;5055799;28;20206;-48
2022/03/11 11:04:14;;;;;;;293.13;238.23;;;;;;;;;;5055982;28;20266;-48
2022/03/11 11:06:41;;;;;;;13.20;8.53;;;;;;;;;;5055964;28;20204;-49
2022/03/11 11:09:10;;;;;;;15.03;7.13;;;;;;;;;;5055744;28;20291;-48
2022/03/11 11:11:38;;;;;;;5.40;2.90;;;;;;;;;;5055744;28;20227;-48
2022/03/11 11:14:10;;;;;;;6.90;1.90;;;;;;;;;;5055499;28;20231;-50
2022/03/11 11:16:45;;;;;;;3.40;2.00;;;;;;;;;;5055566;28;20208;-49
2022/03/11 11:19:14;;;;;;;2.60;2.17;;;;;;;;;;5055006;28;20200;-48
2022/03/11 11:21:44;;;;;;;3.67;2.07;;;;;;;;;;5055782;28;20200;-48
2022/03/11 11:24:13;;;;;;;4.03;1.90;;;;;;;;;;5055363;28;20266;-48
2022/03/11 11:26:45;;;;;;;9.77;5.90;;;;;;;;;;5055302;28;20633;-49
2022/03/11 11:29:14;;;;;;;67.40;15.13;;;;;;;;;;5055526;28;20629;-50
2022/03/11 11:31:42;;;;;;;45.40;12.27;;;;;;;;;;5037957;28;20626;-53
2022/03/11 11:34:37;;;;;;;2.73;2.00;;;;;;;;;;5038001;28;20575;-52
2022/03/11 11:37:08;;;;;;;29.50;14.03;;;;;;;;;;5052588;28;20219;-50
2022/03/11 11:39:41;;;;;;;5.37;2.00;;;;;;;;;;5055378;28;20590;-51
2022/03/11 11:42:11;;;;;;;4.13;2.13;;;;;;;;;;5055191;28;20203;-53
2022/03/11 11:44:44;;;;;;;39.23;16.07;;;;;;;;;;5054992;28;20246;-54
2022/03/11 11:47:16;;;;;;;18.03;6.43;;;;;;;;;;5054955;28;20291;-53
2022/03/11 11:49:52;;;;;;;23.20;5.17;;;;;;;;;;5055723;28;20238;-53
2022/03/11 11:52:29;;;;;;;10.47;3.60;;;;;;;;;;5055169;28;20226;-53
2022/03/11 11:55:19;;;;;;;7.57;3.00;;;;;;;;;;5054913;28;20246;-51
2022/03/11 11:57:48;;;;;;;10.87;3.30;;;;;;;;;;5055124;28;20211;-53
2022/03/11 12:00:33;;;;;;;3.67;2.23;;;;;;;;;;5055013;28;20224;-49
2022/03/11 12:03:02;;;;;;;2.90;1.77;;;;;;;;;;5055370;28;20232;-50
2022/03/11 12:05:48;;;;;;;3.07;1.90;;;;;;;;;;5054953;28;20200;-51
2022/03/11 12:08:33;;;;;;;3.73;2.10;;;;;;;;;;5054812;28;20208;-50
2022/03/11 12:11:01;;;;;;;3.77;1.93;;;;;;;;;;5055075;28;20203;-50
2022/03/11 12:13:32;;;;;;;8.47;3.60;;;;;;;;;;5055010;28;20504;-52
2022/03/11 12:16:00;;;;;;;2.80;1.90;;;;;;;;;;5054586;28;20287;-50
2022/03/11 12:18:42;;;;;;;3.50;2.10;;;;;;;;;;5067189;28;20257;-49
2022/03/11 12:21:22;;;;;;;2.57;1.73;;;;;;;;;;5074671;28;20525;-50
2022/03/11 12:23:49;;;;;;;3.93;2.13;;;;;;;;;;5067996;28;20239;-49
2022/03/11 12:26:16;;;;;;;5.30;2.40;;;;;;;;;;5073554;28;20219;-49
2022/03/11 12:28:44;;;;;;;3.50;2.27;;;;;;;;;;5072976;28;20223;-52
2022/03/11 12:31:21;;;;;;;4.20;2.00;;;;;;;;;;5077258;28;20226;-51
2022/03/11 12:33:49;;;;;;;4.40;1.93;;;;;;;;;;5079862;28;20579;-51
2022/03/11 12:36:20;;;;;;;4.10;2.00;;;;;;;;;;5080566;28;20253;-48
2022/03/11 12:38:48;;;;;;;3.60;2.03;;;;;;;;;;5077315;28;20226;-51
2022/03/11 12:41:22;;;;;;;2.83;1.90;;;;;;;;;;5076852;28;20215;-51
2022/03/11 12:43:49;;;;;;;2.80;1.90;;;;;;;;;;5076249;28;21007;-53
2022/03/11 12:46:17;;;;;;;3.83;1.87;;;;;;;;;;5079289;28;20283;-52
2022/03/11 12:48:45;;;;;;;3.30;2.20;;;;;;;;;;5080078;28;20219;-52
2022/03/11 12:51:18;;;;;;;3.37;1.90;;;;;;;;;;5080227;28;20230;-51
2022/03/11 12:53:47;;;;;;;3.10;1.77;;;;;;;;;;5077955;28;20661;-51
2022/03/11 12:56:15;;;;;;;2.60;1.83;;;;;;;;;;5079335;28;20244;-50
2022/03/11 12:58:42;;;;;;;2.97;1.90;;;;;;;;;;5077995;28;20218;-51
2022/03/11 13:01:11;;;;;;;2.73;2.13;;;;;;;;;;5077194;28;20253;-51
2022/03/11 13:03:43;;;;;;;3.20;1.93;;;;;;;;;;5079727;28;20269;-52
2022/03/11 13:06:12;;;;;;;3.37;1.90;;;;;;;;;;5080085;28;20632;-54
2022/03/11 13:08:42;;;;;;;3.97;2.10;;;;;;;;;;5075236;28;20258;-51
2022/03/11 13:11:12;;;;;;;4.20;2.00;;;;;;;;;;5079084;28;20520;-51
2022/03/11 13:13:41;;;;;;;3.00;1.80;;;;;;;;;;5075900;28;20234;-50
2022/03/11 13:16:08;;;;;;;3.70;1.80;;;;;;;;;;5079178;28;20677;-50
2022/03/11 13:18:38;;;;;;;3.00;1.77;;;;;;;;;;5075636;28;20251;-51
2022/03/11 13:21:08;;;;;;;4.43;1.90;;;;;;;;;;5078964;28;20250;-52
2022/03/11 13:23:36;;;;;;;2.97;1.80;;;;;;;;;;5078326;28;20314;-51
2022/03/11 13:26:09;;;;;;;47.63;9.97;;;;;;;;;;5080066;28;20231;-55
2022/03/11 13:28:41;;;;;;;24.03;9.73;;;;;;;;;;5079131;28;20894;-51
2022/03/11 13:31:23;;;;;;;3.63;2.00;;;;;;;;;;5079871;28;20603;-53
2022/03/11 13:33:57;;;;;;;2.80;1.90;;;;;;;;;;5076560;28;20253;-51
2022/03/11 13:36:29;;;;;;;3.70;1.90;;;;;;;;;;5077272;28;20247;-50
2022/03/11 13:39:08;;;;;;;5.00;2.00;;;;;;;;;;5076133;28;20268;-54
2022/03/11 13:41:35;;;;;;;4.63;1.90;;;;;;;;;;5074975;28;20225;-50
2022/03/11 13:44:08;;;;;;;5.83;2.57;;;;;;;;;;5072930;28;20250;-54
2022/03/11 13:46:37;;;;;;;3.00;1.63;;;;;;;;;;5073976;28;20265;-52
2022/03/11 13:49:07;;;;;;;3.53;2.00;;;;;;;;;;5074502;28;20705;-52
2022/03/11 13:51:41;;;;;;;3.70;1.90;;;;;;;;;;5071685;28;20666;-54
2022/03/11 13:54:09;;;;;;;2.17;1.60;;;;;;;;;;5074773;28;20368;-52
2022/03/11 13:56:40;;;;;;;3.00;1.57;;;;;;;;;;5074864;28;20592;-54
2022/03/11 13:59:10;;;;;;;2.43;1.83;;;;;;;;;;5074633;28;20224;-52
2022/03/11 14:02:07;;;;;;;2.90;1.80;;;;;;;;;;5071975;28;20308;-52
2022/03/11 14:04:34;;;;;;;3.13;1.87;;;;;;;;;;5068455;28;20556;-54
2022/03/11 14:07:10;;;;;;;4.73;2.43;;;;;;;;;;5074208;28;20225;-52
2022/03/11 14:09:38;;;;;;;3.63;1.73;;;;;;;;;;5072023;28;20223;-51
2022/03/11 14:12:05;;;;;;;3.73;2.10;;;;;;;;;;5077281;28;20235;-54
2022/03/11 14:14:34;;;;;;;2.00;1.60;;;;;;;;;;5069795;28;20231;-54
2022/03/11 14:17:06;;;;;;;2.73;1.70;;;;;;;;;;5074462;28;20224;-51
2022/03/11 14:19:34;;;;;;;3.07;1.90;;;;;;;;;;5071206;28;20219;-52
2022/03/11 14:22:01;;;;;;;4.07;2.17;;;;;;;;;;5073795;28;20219;-49
2022/03/11 14:24:29;;;;;;;4.27;2.20;;;;;;;;;;5073545;28;20277;-51
2022/03/11 14:26:56;;;;;;;2.97;1.50;;;;;;;;;;5073999;28;20215;-48
2022/03/11 14:29:23;;;;;;;7.37;2.43;;;;;;;;;;5056607;28;20219;-58
2022/03/11 14:31:50;;;;;;;4.23;2.63;;;;;;;;;;5073855;28;20215;-51
2022/03/11 14:34:23;;;;;;;4.87;2.47;;;;;;;;;;5073671;28;20658;-52
2022/03/11 14:36:50;;;;;;;4.73;2.80;;;;;;;;;;5073511;28;20222;-54
2022/03/11 14:39:17;;;;;;;3.77;2.20;;;;;;;;;;5073266;28;20243;-49
2022/03/11 14:41:44;;;;;;;7.13;3.23;;;;;;;;;;5073735;28;20219;-50
2022/03/11 14:44:12;;;;;;;6.03;2.70;;;;;;;;;;5073069;28;20231;-53